createdAt,value
2023-03-10T00:00:12.814Z,4.74
2023-03-10T00:02:44.888Z,4.78
2023-03-10T00:05:11.384Z,4.81
2023-03-10T00:07:37.924Z,4.84
2023-03-10T00:10:04.560Z,4.87
2023-03-10T00:12:30.886Z,4.91
2023-03-10T00:14:57.388Z,4.94
2023-03-10T00:17:23.830Z,4.99
2023-03-10T00:19:50.151Z,5.03
2023-03-10T00:22:16.608Z,5.07
2023-03-10T00:24:42.911Z,5.10
2023-03-10T00:27:09.241Z,5.13
2023-03-10T00:29:35.600Z,5.15
2023-03-10T00:32:01.969Z,5.16
2023-03-10T00:34:28.269Z,5.17
2023-03-10T00:36:54.624Z,5.19
2023-03-10T00:39:21.084Z,5.21
2023-03-10T00:41:48.699Z,5.23
2023-03-10T00:44:15.359Z,5.24
2023-03-10T00:46:41.807Z,5.28
2023-03-10T00:49:08.912Z,5.31
2023-03-10T00:51:35.947Z,5.33
2023-03-10T00:54:03.331Z,5.38
2023-03-10T00:56:30.506Z,5.40
2023-03-10T00:58:59.707Z,5.43
2023-03-10T01:01:27.738Z,5.44
2023-03-10T01:03:56.957Z,5.43
2023-03-10T01:06:24.608Z,5.42
2023-03-10T01:08:51.349Z,5.42
2023-03-10T01:11:20.956Z,5.43
2023-03-10T01:13:48.571Z,5.41
2023-03-10T01:16:15.941Z,5.42
2023-03-10T01:18:43.182Z,5.40
2023-03-10T01:21:15.989Z,5.40
2023-03-10T01:23:42.318Z,5.41
2023-03-10T01:26:08.843Z,5.45
2023-03-10T01:28:35.413Z,5.47
2023-03-10T01:31:01.763Z,5.49
2023-03-10T01:33:28.191Z,5.49
2023-03-10T01:35:54.595Z,5.48
2023-03-10T01:38:21.013Z,5.47
2023-03-10T01:40:49.818Z,5.45
2023-03-10T01:43:35.909Z,5.43
2023-03-10T01:46:02.241Z,5.41
2023-03-10T01:48:32.447Z,5.41
2023-03-10T01:50:59.035Z,5.40
2023-03-10T01:53:28.316Z,5.40
2023-03-10T01:55:59.753Z,5.41
2023-03-10T01:58:31.984Z,5.41
2023-03-10T02:00:58.401Z,5.41
2023-03-10T02:03:29.821Z,5.41
2023-03-10T02:05:59.663Z,5.38
2023-03-10T02:08:30.927Z,5.35
2023-03-10T02:10:59.082Z,5.31
2023-03-10T02:13:25.461Z,5.29
2023-03-10T02:15:52.089Z,5.24
2023-03-10T02:18:20.936Z,5.25
2023-03-10T02:20:59.320Z,5.27
2023-03-10T02:23:42.992Z,5.29
2023-03-10T02:26:22.225Z,5.31
2023-03-10T02:28:50.607Z,5.28
2023-03-10T02:31:17.469Z,5.25
2023-03-10T02:33:45.969Z,5.21
2023-03-10T02:36:13.780Z,5.17
2023-03-10T02:38:40.149Z,5.16
2023-03-10T02:41:28.733Z,5.14
2023-03-10T02:43:57.392Z,5.11
2023-03-10T02:46:24.115Z,5.09
2023-03-10T02:48:50.777Z,5.03
2023-03-10T02:51:26.027Z,4.96
2023-03-10T02:53:52.484Z,4.88
2023-03-10T02:56:18.849Z,4.80
2023-03-10T02:58:45.192Z,4.74
2023-03-10T03:01:11.638Z,4.70
2023-03-10T03:03:38.253Z,4.69
2023-03-10T03:06:05.428Z,4.67
2023-03-10T03:08:33.258Z,4.69
2023-03-10T03:11:00.303Z,4.71
2023-03-10T03:13:27.231Z,4.73
2023-03-10T03:15:53.649Z,4.76
2023-03-10T03:18:19.968Z,4.76
2023-03-10T03:20:46.440Z,4.78
2023-03-10T03:23:13.051Z,4.80
2023-03-10T03:25:41.344Z,4.83
2023-03-10T03:28:09.701Z,4.85
2023-03-10T03:30:36.544Z,4.89
2023-03-10T03:33:04.323Z,4.93
2023-03-10T03:35:33.135Z,4.99
2023-03-10T03:38:00.287Z,5.01
2023-03-10T03:40:28.819Z,5.06
2023-03-10T03:42:55.892Z,5.11
2023-03-10T03:45:25.787Z,5.15
2023-03-10T03:47:52.201Z,5.17
2023-03-10T03:50:20.171Z,5.21
2023-03-10T03:52:47.156Z,5.24
2023-03-10T03:55:15.901Z,5.28
2023-03-10T03:57:44.786Z,5.33
2023-03-10T04:00:16.113Z,5.36
2023-03-10T04:02:42.572Z,5.38
2023-03-10T04:05:09.110Z,5.41
2023-03-10T04:07:35.501Z,5.43
2023-03-10T04:10:01.994Z,5.46
2023-03-10T04:12:29.509Z,5.47
2023-03-10T04:14:55.808Z,5.47
2023-03-10T04:17:22.167Z,5.48
2023-03-10T04:20:00.716Z,5.49
2023-03-10T04:22:33.006Z,5.50
2023-03-10T04:24:59.346Z,5.52
2023-03-10T04:27:25.669Z,5.50
2023-03-10T04:29:52.018Z,5.53
2023-03-10T04:32:18.644Z,5.51
2023-03-10T04:34:44.994Z,5.48
2023-03-10T04:37:11.488Z,5.47
2023-03-10T04:39:38.100Z,5.44
2023-03-10T04:42:04.677Z,5.42
2023-03-10T04:44:31.742Z,5.40
2023-03-10T04:46:58.699Z,5.38
2023-03-10T04:49:25.108Z,5.34
2023-03-10T04:51:51.513Z,5.30
2023-03-10T04:54:17.882Z,5.26
2023-03-10T04:56:44.284Z,5.22
2023-03-10T04:59:10.872Z,5.21
2023-03-10T05:01:37.241Z,5.19
2023-03-10T05:04:05.549Z,5.17
2023-03-10T05:06:32.249Z,5.17
2023-03-10T05:08:58.608Z,5.15
2023-03-10T05:11:24.990Z,5.14
2023-03-10T05:13:51.340Z,5.14
2023-03-10T05:16:20.520Z,5.12
2023-03-10T05:18:47.018Z,5.10
2023-03-10T05:21:13.723Z,5.09
2023-03-10T05:23:40.782Z,5.09
2023-03-10T05:26:09.399Z,5.07
2023-03-10T05:28:35.836Z,5.07
2023-03-10T05:31:09.193Z,5.06
2023-03-10T05:33:35.541Z,5.06
2023-03-10T05:36:05.526Z,5.07
2023-03-10T05:38:31.891Z,5.06
2023-03-10T05:40:58.304Z,5.06
2023-03-10T05:43:24.732Z,5.06
2023-03-10T05:45:59.314Z,5.04
2023-03-10T05:48:26.441Z,5.02
2023-03-10T05:51:08.405Z,5.02
2023-03-10T05:53:35.469Z,5.00
2023-03-10T05:56:06.642Z,5.00
2023-03-10T05:58:33.048Z,4.98
2023-03-10T06:00:59.422Z,4.97
2023-03-10T06:03:25.992Z,4.97
2023-03-10T06:05:52.376Z,4.96
2023-03-10T06:08:18.765Z,4.95
2023-03-10T06:10:45.122Z,4.95
2023-03-10T06:13:11.464Z,4.95
2023-03-10T06:15:37.800Z,4.95
2023-03-10T06:18:04.261Z,4.96
2023-03-10T06:20:30.589Z,4.95
2023-03-10T06:22:56.934Z,4.94
2023-03-10T06:25:23.335Z,4.94
2023-03-10T06:27:49.691Z,4.93
2023-03-10T06:30:16.433Z,4.92
2023-03-10T06:32:43.167Z,4.91
2023-03-10T06:35:13.152Z,4.88
2023-03-10T06:37:39.709Z,4.85
2023-03-10T06:40:08.449Z,4.84
2023-03-10T06:42:34.873Z,4.83
2023-03-10T06:45:01.284Z,4.82
2023-03-10T06:47:27.685Z,4.81
2023-03-10T06:49:54.679Z,4.82
2023-03-10T06:52:21.083Z,4.83
2023-03-10T06:54:47.415Z,4.84
2023-03-10T06:57:13.725Z,4.87
2023-03-10T06:59:40.094Z,4.89
2023-03-10T07:02:07.218Z,4.92
2023-03-10T07:04:33.960Z,4.93
2023-03-10T07:07:00.289Z,4.97
2023-03-10T07:09:26.597Z,4.96
2023-03-10T07:11:52.931Z,4.96
2023-03-10T07:14:19.260Z,4.95
2023-03-10T07:16:46.569Z,4.94
2023-03-10T07:19:13.574Z,4.94
2023-03-10T07:21:39.984Z,4.93
2023-03-10T07:24:06.454Z,4.93
2023-03-10T07:26:32.890Z,4.92
2023-03-10T07:28:59.343Z,4.93
2023-03-10T07:31:26.085Z,4.92
2023-03-10T07:33:52.472Z,4.91
2023-03-10T07:36:20.193Z,4.91
2023-03-10T07:38:47.274Z,4.92
2023-03-10T07:41:17.288Z,4.93
2023-03-10T07:43:43.786Z,4.94
2023-03-10T07:46:13.385Z,4.96
2023-03-10T07:48:39.945Z,4.97
2023-03-10T07:51:06.912Z,4.98
2023-03-10T07:53:34.030Z,5.00
2023-03-10T07:56:04.750Z,5.01
2023-03-10T07:58:31.157Z,5.02
2023-03-10T08:00:59.006Z,5.03
2023-03-10T08:03:27.360Z,5.04
2023-03-10T08:05:53.860Z,5.05
2023-03-10T08:08:20.238Z,5.09
2023-03-10T08:10:46.780Z,5.10
2023-03-10T08:13:14.318Z,5.10
2023-03-10T08:15:40.946Z,5.12
2023-03-10T08:18:08.154Z,5.12
2023-03-10T08:20:35.874Z,5.13
2023-03-10T08:23:03.777Z,5.12
2023-03-10T08:25:30.573Z,5.12
2023-03-10T08:27:56.894Z,5.13
2023-03-10T08:30:23.523Z,5.12
2023-03-10T08:32:49.927Z,5.14
2023-03-10T08:35:16.838Z,5.13
2023-03-10T08:37:43.633Z,5.14
2023-03-10T08:40:13.377Z,5.16
2023-03-10T08:42:39.913Z,5.16
2023-03-10T08:45:08.852Z,5.19
2023-03-10T08:47:35.709Z,5.22
2023-03-10T08:50:02.273Z,5.27
2023-03-10T08:52:28.684Z,5.30
2023-03-10T08:54:55.088Z,5.35
2023-03-10T08:57:21.997Z,5.39
2023-03-10T08:59:48.418Z,5.43
2023-03-10T09:02:15.631Z,5.48
2023-03-10T09:04:42.649Z,5.53
2023-03-10T09:07:09.935Z,5.63
2023-03-10T09:09:36.275Z,5.69
2023-03-10T09:12:03.994Z,5.77
2023-03-10T09:14:30.473Z,5.85
2023-03-10T09:16:56.872Z,5.92
2023-03-10T09:19:24.245Z,5.97
2023-03-10T09:21:50.589Z,6.01
2023-03-10T09:24:17.991Z,6.05
2023-03-10T09:26:44.959Z,6.07
2023-03-10T09:29:12.002Z,6.10
2023-03-10T09:31:39.482Z,6.11
2023-03-10T09:34:08.118Z,6.11
2023-03-10T09:36:35.185Z,6.12
2023-03-10T09:39:02.312Z,6.11
2023-03-10T09:41:58.021Z,6.11
2023-03-10T09:44:42.691Z,6.11
2023-03-10T09:47:25.358Z,6.11
2023-03-10T09:50:13.856Z,6.08
2023-03-10T09:52:57.174Z,6.08
2023-03-10T09:55:47.974Z,6.06
2023-03-10T09:58:39.163Z,6.06
2023-03-10T10:01:13.305Z,6.05
2023-03-10T10:03:52.949Z,6.05
2023-03-10T10:06:34.052Z,6.04
2023-03-10T10:09:05.692Z,6.03
2023-03-10T10:11:33.934Z,6.03
2023-03-10T10:14:27.791Z,6.03
2023-03-10T10:17:20.190Z,6.06
2023-03-10T10:19:48.454Z,6.08
2023-03-10T10:22:22.058Z,6.13
2023-03-10T10:25:08.222Z,6.19
2023-03-10T10:27:39.818Z,6.25
2023-03-10T10:30:29.474Z,6.34
2023-03-10T10:33:06.416Z,6.43
2023-03-10T10:35:41.950Z,6.51
2023-03-10T10:38:11.541Z,6.59
2023-03-10T10:40:50.702Z,6.65
2023-03-10T10:43:19.942Z,6.70
2023-03-10T10:45:57.179Z,6.76
2023-03-10T10:48:43.814Z,6.85
2023-03-10T10:51:28.862Z,6.93
2023-03-10T10:54:01.052Z,7.03
2023-03-10T10:56:28.841Z,7.12
2023-03-10T10:59:20.009Z,7.20
2023-03-10T11:01:49.547Z,7.24
2023-03-10T11:04:17.582Z,7.29
2023-03-10T11:06:44.105Z,7.31
2023-03-10T11:09:18.271Z,7.33
2023-03-10T11:11:59.364Z,7.35
2023-03-10T11:14:36.056Z,7.35
2023-03-10T11:17:05.320Z,7.34
2023-03-10T11:19:45.860Z,7.31
2023-03-10T11:22:28.356Z,7.29
2023-03-10T11:25:23.937Z,7.27
2023-03-10T11:28:13.737Z,7.29
2023-03-10T11:30:49.097Z,7.29
2023-03-10T11:33:41.764Z,7.30
2023-03-10T11:36:23.306Z,7.31
2023-03-10T11:38:58.285Z,7.33
2023-03-10T11:41:28.559Z,7.34
2023-03-10T11:44:03.403Z,7.36
2023-03-10T11:46:36.528Z,7.36
2023-03-10T11:49:06.389Z,7.35
2023-03-10T11:51:52.952Z,7.34
2023-03-10T11:54:31.399Z,7.33
2023-03-10T11:56:59.547Z,7.32
2023-03-10T11:59:33.089Z,7.34
2023-03-10T12:02:10.047Z,7.34
2023-03-10T12:04:43.722Z,7.33
2023-03-10T12:07:20.982Z,7.32
2023-03-10T12:09:58.151Z,7.32
2023-03-10T12:12:32.208Z,7.30
2023-03-10T12:15:06.253Z,7.26
2023-03-10T12:17:32.704Z,7.21
2023-03-10T12:20:16.014Z,7.18
2023-03-10T12:22:46.722Z,7.14
2023-03-10T12:25:28.070Z,7.09
2023-03-10T12:28:20.038Z,7.06
2023-03-10T12:31:02.649Z,7.02
2023-03-10T12:33:33.883Z,6.99
2023-03-10T12:36:15.266Z,6.97
2023-03-10T12:38:41.913Z,6.93
2023-03-10T12:41:09.373Z,6.91
2023-03-10T12:44:23.168Z,6.92
2023-03-10T12:47:12.310Z,6.92
2023-03-10T12:49:49.845Z,6.93
2023-03-10T12:52:29.338Z,6.94
2023-03-10T12:55:15.809Z,6.96
2023-03-10T12:58:01.570Z,6.98
2023-03-10T13:00:33.909Z,6.99
2023-03-10T13:03:09.634Z,6.98
2023-03-10T13:05:42.566Z,6.98
2023-03-10T13:08:17.874Z,7.01
2023-03-10T13:10:44.831Z,7.04
2023-03-10T13:13:16.958Z,7.11
2023-03-10T13:15:43.387Z,7.16
2023-03-10T13:18:11.637Z,7.24
2023-03-10T13:20:38.316Z,7.31
2023-03-10T13:23:04.765Z,7.39
2023-03-10T13:25:33.666Z,7.43
2023-03-10T13:28:09.501Z,7.50
2023-03-10T13:30:35.729Z,7.57
2023-03-10T13:33:02.473Z,7.60
2023-03-10T13:35:36.740Z,7.60
2023-03-10T13:38:07.326Z,7.63
2023-03-10T13:40:34.296Z,7.64
2023-03-10T13:43:00.806Z,7.68
2023-03-10T13:45:33.792Z,7.70
2023-03-10T13:48:05.116Z,7.73
2023-03-10T13:50:31.963Z,7.73
2023-03-10T13:52:59.596Z,7.75
2023-03-10T13:55:28.215Z,7.76
2023-03-10T13:57:55.988Z,7.75
2023-03-10T14:00:25.713Z,7.74
2023-03-10T14:02:53.453Z,7.70
2023-03-10T14:05:46.067Z,7.67
2023-03-10T14:08:32.747Z,7.64
2023-03-10T14:11:20.846Z,7.60
2023-03-10T14:13:47.711Z,7.58
2023-03-10T14:16:14.424Z,7.55
2023-03-10T14:18:42.827Z,7.54
2023-03-10T14:22:00.044Z,7.48
2023-03-10T14:24:28.123Z,7.39
2023-03-10T14:26:59.482Z,7.32
2023-03-10T14:29:27.033Z,7.26
2023-03-10T14:31:53.360Z,7.19
2023-03-10T14:34:28.832Z,7.18
2023-03-10T14:36:55.148Z,7.15
2023-03-10T14:39:21.482Z,7.14
2023-03-10T14:41:47.965Z,7.13
2023-03-10T14:44:14.374Z,7.11
2023-03-10T14:46:40.955Z,7.09
2023-03-10T14:49:14.666Z,7.08
2023-03-10T14:51:40.975Z,7.06
2023-03-10T14:54:24.939Z,7.03
2023-03-10T14:56:58.912Z,6.97
2023-03-10T14:59:28.082Z,6.93
2023-03-10T15:02:06.364Z,6.89
2023-03-10T15:04:32.930Z,6.85
2023-03-10T15:06:59.335Z,6.81
2023-03-10T15:09:25.685Z,6.78
2023-03-10T15:11:54.586Z,6.74
2023-03-10T15:14:33.238Z,6.71
2023-03-10T15:16:59.654Z,6.67
2023-03-10T15:19:27.813Z,6.62
2023-03-10T15:21:54.401Z,6.55
2023-03-10T15:24:20.839Z,6.49
2023-03-10T15:26:48.216Z,6.44
2023-03-10T15:29:16.421Z,6.39
2023-03-10T15:31:42.845Z,6.35
2023-03-10T15:34:09.408Z,6.30
2023-03-10T15:36:36.187Z,6.26
2023-03-10T15:39:04.139Z,6.23
2023-03-10T15:41:35.041Z,6.18
2023-03-10T15:44:01.577Z,6.12
2023-03-10T15:46:27.969Z,6.09
2023-03-10T15:48:54.448Z,6.03
2023-03-10T15:51:21.006Z,6.00
2023-03-10T15:53:47.391Z,5.96
2023-03-10T15:56:15.262Z,5.90
2023-03-10T15:58:41.919Z,5.86
2023-03-10T16:01:16.367Z,5.82
2023-03-10T16:03:43.110Z,5.77
2023-03-10T16:06:10.307Z,5.69
2023-03-10T16:08:40.054Z,5.63
2023-03-10T16:11:15.941Z,5.55
2023-03-10T16:13:45.061Z,5.48
2023-03-10T16:16:12.822Z,5.40
2023-03-10T16:18:39.190Z,5.34
2023-03-10T16:21:05.742Z,5.27
2023-03-10T16:23:33.292Z,5.20
2023-03-10T16:26:18.384Z,5.15
2023-03-10T16:28:47.706Z,5.09
2023-03-10T16:31:15.325Z,5.03
2023-03-10T16:33:42.170Z,4.97
2023-03-10T16:36:13.439Z,4.92
2023-03-10T16:38:40.060Z,4.83
2023-03-10T16:41:08.234Z,4.77
2023-03-10T16:43:34.627Z,4.72
2023-03-10T16:46:06.387Z,4.66
2023-03-10T16:48:33.771Z,4.59
2023-03-10T16:51:00.237Z,4.51
2023-03-10T16:53:26.693Z,4.43
2023-03-10T16:56:04.025Z,4.32
2023-03-10T16:58:30.758Z,4.16
2023-03-10T17:00:57.137Z,4.03
2023-03-10T17:03:23.635Z,3.88
2023-03-10T17:05:53.542Z,3.72
2023-03-10T17:08:21.471Z,3.54
2023-03-10T17:10:48.626Z,3.36
2023-03-10T17:13:15.129Z,3.22
2023-03-10T17:15:41.504Z,3.02
2023-03-10T17:18:07.823Z,2.89
2023-03-10T17:20:34.188Z,2.79
2023-03-10T17:23:00.574Z,2.71
2023-03-10T17:25:26.925Z,2.60
2023-03-10T17:27:53.436Z,2.53
2023-03-10T17:30:20.010Z,2.47
2023-03-10T17:32:48.429Z,2.38
2023-03-10T17:35:14.889Z,2.37
2023-03-10T17:37:41.493Z,2.34
2023-03-10T17:40:11.189Z,2.29
2023-03-10T17:42:37.509Z,2.23
2023-03-10T17:45:06.815Z,2.22
2023-03-10T17:47:33.370Z,2.22
2023-03-10T17:50:01.976Z,2.20
2023-03-10T17:52:29.304Z,2.18
2023-03-10T17:54:55.939Z,2.16
2023-03-10T17:57:22.290Z,2.13
2023-03-10T17:59:50.892Z,2.10
2023-03-10T18:02:17.343Z,2.16
2023-03-10T18:04:46.636Z,2.21
2023-03-10T18:07:13.396Z,2.25
2023-03-10T18:09:39.953Z,2.28
2023-03-10T18:12:06.669Z,2.30
2023-03-10T18:14:34.498Z,2.32
2023-03-10T18:17:02.872Z,2.34
2023-03-10T18:19:29.264Z,2.35
2023-03-10T18:21:55.596Z,2.38
2023-03-10T18:24:22.349Z,2.38
2023-03-10T18:26:48.914Z,2.38
2023-03-10T18:29:16.413Z,2.38
2023-03-10T18:31:42.758Z,2.39
2023-03-10T18:34:10.326Z,2.41
2023-03-10T18:36:36.809Z,2.41
2023-03-10T18:39:04.827Z,2.42
2023-03-10T18:41:32.507Z,2.42
2023-03-10T18:43:59.939Z,2.44
2023-03-10T18:46:27.052Z,2.44
2023-03-10T18:48:55.758Z,2.44
2023-03-10T18:51:27.661Z,2.46
2023-03-10T18:53:54.056Z,2.47
2023-03-10T18:56:20.644Z,2.47
2023-03-10T18:58:47.002Z,2.48
2023-03-10T19:01:14.640Z,2.48
2023-03-10T19:03:41.743Z,2.49
2023-03-10T19:06:08.368Z,2.51
2023-03-10T19:08:36.651Z,2.50
2023-03-10T19:11:03.748Z,2.48
2023-03-10T19:13:30.096Z,2.49
2023-03-10T19:15:56.873Z,2.49
2023-03-10T19:18:24.611Z,2.49
2023-03-10T19:20:51.430Z,2.49
2023-03-10T19:23:17.982Z,2.49
2023-03-10T19:25:44.486Z,2.50
2023-03-10T19:28:10.856Z,2.49
2023-03-10T19:30:42.716Z,2.51
2023-03-10T19:33:11.005Z,2.50
2023-03-10T19:35:38.066Z,2.51
2023-03-10T19:38:05.477Z,2.52
2023-03-10T19:40:32.606Z,2.52
2023-03-10T19:42:59.557Z,2.52
2023-03-10T19:45:26.196Z,2.55
2023-03-10T19:47:55.200Z,2.55
2023-03-10T19:50:21.917Z,2.56
2023-03-10T19:52:49.853Z,2.57
2023-03-10T19:55:23.344Z,2.57
2023-03-10T19:57:52.181Z,2.57
2023-03-10T20:00:24.972Z,2.58
2023-03-10T20:02:53.172Z,2.58
2023-03-10T20:05:20.600Z,2.60
2023-03-10T20:07:47.383Z,2.60
2023-03-10T20:10:15.798Z,2.59
2023-03-10T20:12:42.292Z,2.60
2023-03-10T20:15:10.301Z,2.60
2023-03-10T20:17:36.815Z,2.60
2023-03-10T20:20:09.942Z,2.63
2023-03-10T20:22:39.063Z,2.61
2023-03-10T20:25:07.534Z,2.62
2023-03-10T20:27:34.295Z,2.61
2023-03-10T20:30:00.706Z,2.61
2023-03-10T20:32:27.155Z,2.60
2023-03-10T20:34:54.623Z,2.60
2023-03-10T20:37:21.012Z,2.59
2023-03-10T20:39:47.472Z,2.60
2023-03-10T20:42:13.911Z,2.60
2023-03-10T20:44:40.532Z,2.59
2023-03-10T20:47:07.567Z,2.58
2023-03-10T20:49:33.906Z,2.59
2023-03-10T20:52:00.236Z,2.59
2023-03-10T20:54:26.797Z,2.59
2023-03-10T20:56:53.241Z,2.61
2023-03-10T20:59:19.690Z,2.61
2023-03-10T21:01:46.199Z,2.62
2023-03-10T21:04:12.546Z,2.62
2023-03-10T21:06:38.874Z,2.62
2023-03-10T21:09:05.857Z,2.63
2023-03-10T21:11:35.641Z,2.66
2023-03-10T21:14:02.086Z,2.66
2023-03-10T21:16:28.491Z,2.66
2023-03-10T21:18:54.830Z,2.67
2023-03-10T21:21:21.188Z,2.65
2023-03-10T21:23:47.832Z,2.67
2023-03-10T21:26:16.973Z,2.68
2023-03-10T21:28:44.023Z,2.67
2023-03-10T21:31:10.710Z,2.69
2023-03-10T21:33:37.146Z,2.69
2023-03-10T21:36:03.917Z,2.70
2023-03-10T21:38:30.302Z,2.71
2023-03-10T21:40:56.643Z,2.71
2023-03-10T21:43:23.113Z,2.71
2023-03-10T21:45:49.536Z,2.71
2023-03-10T21:48:15.986Z,2.71
2023-03-10T21:50:42.451Z,2.71
2023-03-10T21:53:09.210Z,2.71
2023-03-10T21:55:37.545Z,2.72
2023-03-10T21:58:05.651Z,2.71
2023-03-10T22:00:32.335Z,2.71
2023-03-10T22:02:59.055Z,2.72
2023-03-10T22:05:25.622Z,2.73
2023-03-10T22:07:52.157Z,2.73
2023-03-10T22:10:18.925Z,2.73
2023-03-10T22:12:45.675Z,2.73
2023-03-10T22:15:19.280Z,2.73
2023-03-10T22:17:45.912Z,2.73
2023-03-10T22:20:16.954Z,2.74
2023-03-10T22:22:43.362Z,2.74
2023-03-10T22:25:10.581Z,2.74
2023-03-10T22:27:36.942Z,2.75
2023-03-10T22:30:04.201Z,2.75
2023-03-10T22:32:30.574Z,2.75
2023-03-10T22:34:57.071Z,2.74
2023-03-10T22:37:23.497Z,2.73
2023-03-10T22:39:49.927Z,2.72
2023-03-10T22:42:16.599Z,2.71
2023-03-10T22:44:43.026Z,2.70
2023-03-10T22:47:09.435Z,2.67
2023-03-10T22:49:35.878Z,2.66
2023-03-10T22:52:06.846Z,2.64
2023-03-10T22:54:33.651Z,2.60
2023-03-10T22:57:00.122Z,2.59
2023-03-10T22:59:26.526Z,2.57
2023-03-10T23:01:53.263Z,2.55
2023-03-10T23:04:19.634Z,2.54
2023-03-10T23:06:46.032Z,2.54
2023-03-10T23:09:12.567Z,2.54
2023-03-10T23:11:39.011Z,2.53
2023-03-10T23:14:05.469Z,2.54
2023-03-10T23:16:36.763Z,2.55
2023-03-10T23:19:07.196Z,2.56
2023-03-10T23:21:35.285Z,2.57
2023-03-10T23:24:01.930Z,2.58
2023-03-10T23:26:30.050Z,2.59
2023-03-10T23:28:56.436Z,2.60
2023-03-10T23:31:22.913Z,2.58
2023-03-10T23:33:49.506Z,2.57
2023-03-10T23:36:15.997Z,2.57
2023-03-10T23:38:42.476Z,2.55
2023-03-10T23:41:09.020Z,2.54
2023-03-10T23:43:35.956Z,2.53
2023-03-10T23:46:07.597Z,2.54
2023-03-10T23:48:34.980Z,2.55
2023-03-10T23:51:02.756Z,2.55
2023-03-10T23:53:29.798Z,2.56
2023-03-10T23:56:00.231Z,2.58
2023-03-10T23:58:27.964Z,2.60
